Time;durP1;ratioP1;P1;durP2;ratioP2;P2;SDS_P1;SDS_P2;PMS_P1;PMS_P2;Temp;Humidity;BMP_temperature;BMP_pressure;BME280_temperature;BME280_humidity;BME280_pressure;Samples;Min_cycle;Max_cycle;Signal;HPM_P1;HPM_P2
2022/06/06 00:00:13;;;;;;;16.43;14.30;;;15.90;99.90;;;;;;5140320;27;20058;-78
2022/06/06 00:02:40;;;;;;;15.43;13.17;;;15.90;99.90;;;;;;5133711;27;20038;-79
2022/06/06 00:05:13;;;;;;;15.37;12.70;;;15.80;99.90;;;;;;5131965;27;20092;-78
2022/06/06 00:07:39;;;;;;;16.63;13.63;;;15.80;99.90;;;;;;5148150;27;20039;-79
2022/06/06 00:10:08;;;;;;;13.63;11.97;;;15.80;99.90;;;;;;5143100;27;20064;-79
2022/06/06 00:12:35;;;;;;;14.20;12.17;;;15.80;99.90;;;;;;5151045;27;20079;-79
2022/06/06 00:15:01;;;;;;;12.77;11.47;;;15.70;99.90;;;;;;5140410;27;20130;-79
2022/06/06 00:17:27;;;;;;;12.70;11.40;;;15.70;99.90;;;;;;5124124;27;20039;-79
2022/06/06 00:19:53;;;;;;;14.83;12.33;;;15.70;99.90;;;;;;5140361;27;20582;-78
2022/06/06 00:22:18;;;;;;;12.20;10.90;;;15.70;99.90;;;;;;5104965;27;20035;-77
2022/06/06 00:24:44;;;;;;;12.70;11.30;;;15.70;99.90;;;;;;5147453;27;20080;-79
2022/06/06 00:27:11;;;;;;;12.53;11.23;;;15.70;99.90;;;;;;5129070;27;20035;-79
2022/06/06 00:29:37;;;;;;;11.87;9.93;;;15.60;99.90;;;;;;5149661;27;20039;-79
2022/06/06 00:34:49;;;;;;;11.73;10.50;;;15.60;99.90;;;;;;5149280;27;20038;-82
2022/06/06 00:37:18;;;;;;;12.97;10.17;;;15.60;99.90;;;;;;5141361;27;20086;-78
2022/06/06 00:39:44;;;;;;;14.03;10.40;;;15.60;99.90;;;;;;5151804;27;20039;-79
2022/06/06 00:42:16;;;;;;;13.07;10.70;;;15.60;99.90;;;;;;5164333;27;20052;-79
2022/06/06 00:44:42;;;;;;;13.33;10.97;;;15.60;99.90;;;;;;5150299;27;20030;-78
2022/06/06 00:47:17;;;;;;;11.60;10.37;;;15.50;99.90;;;;;;5154300;27;20058;-80
2022/06/06 00:49:46;;;;;;;12.00;10.00;;;15.50;99.90;;;;;;5132985;27;20042;-79
2022/06/06 00:52:16;;;;;;;11.33;10.13;;;15.50;99.90;;;;;;5122948;27;20039;-80
2022/06/06 00:54:43;;;;;;;11.93;10.07;;;15.50;99.90;;;;;;5157120;27;20038;-80
2022/06/06 00:57:15;;;;;;;11.37;10.17;;;15.40;99.90;;;;;;5137406;27;20038;-78
2022/06/06 00:59:44;;;;;;;12.97;9.90;;;15.40;99.90;;;;;;5146017;27;20046;-79
2022/06/06 01:02:12;;;;;;;12.47;10.07;;;15.40;99.90;;;;;;5154364;27;20093;-79
2022/06/06 01:04:39;;;;;;;11.00;9.30;;;15.40;99.90;;;;;;5156216;27;20062;-80
2022/06/06 01:07:06;;;;;;;9.03;7.93;;;15.40;99.90;;;;;;5122966;27;20052;-79
2022/06/06 01:09:31;;;;;;;10.40;8.97;;;15.40;99.90;;;;;;5122290;27;20082;-79
2022/06/06 01:12:00;;;;;;;10.30;9.13;;;15.40;99.90;;;;;;5145915;27;20512;-80
2022/06/06 01:14:33;;;;;;;9.23;8.10;;;15.40;99.90;;;;;;5122088;27;20046;-79
2022/06/06 01:17:03;;;;;;;10.47;9.37;;;15.30;99.90;;;;;;5149053;27;20085;-79
2022/06/06 01:20:00;;;;;;;10.07;9.07;;;15.30;99.90;;;;;;5140206;27;20084;-78
2022/06/06 01:22:53;;;;;;;11.60;9.40;;;15.30;99.90;;;;;;5124617;27;20485;-78
2022/06/06 01:25:36;;;;;;;9.93;8.93;;;15.30;99.90;;;;;;5142875;27;20046;-79
2022/06/06 01:28:08;;;;;;;9.97;8.97;;;15.30;99.90;;;;;;5132481;27;20370;-79
2022/06/06 01:30:41;;;;;;;11.43;9.20;;;15.20;99.90;;;;;;5141589;27;20054;-79
2022/06/06 01:33:10;;;;;;;14.13;9.40;;;15.20;99.90;;;;;;5141681;27;20424;-79
2022/06/06 01:35:50;;;;;;;12.23;9.90;;;15.20;99.90;;;;;;5134451;27;20074;-78
2022/06/06 01:38:20;;;;;;;13.00;10.90;;;15.20;99.90;;;;;;5142699;27;20035;-79
2022/06/06 01:40:54;;;;;;;11.47;9.70;;;15.10;99.90;;;;;;5136365;27;20453;-79
2022/06/06 01:43:26;;;;;;;11.07;9.98;;;15.20;99.90;;;;;;5149277;27;20042;-79
2022/06/06 01:45:58;;;;;;;11.53;9.90;;;15.20;99.90;;;;;;5145147;27;20043;-78
2022/06/06 01:48:30;;;;;;;11.27;10.17;;;15.20;99.90;;;;;;5132660;27;20084;-78
2022/06/06 01:50:57;;;;;;;12.37;9.53;;;15.10;99.90;;;;;;5116452;27;20492;-77
2022/06/06 01:53:24;;;;;;;10.97;9.80;;;15.10;99.90;;;;;;5141344;27;20030;-78
2022/06/06 01:55:53;;;;;;;13.03;10.63;;;15.10;99.90;;;;;;5126993;27;20040;-78
2022/06/06 01:58:21;;;;;;;12.97;10.17;;;15.10;99.90;;;;;;5134855;27;20125;-77
2022/06/06 02:00:47;;;;;;;13.30;10.83;;;15.00;99.90;;;;;;5106277;27;20056;-79
2022/06/06 02:03:14;;;;;;;13.17;10.90;;;15.00;99.90;;;;;;5140521;27;20062;-78
2022/06/06 02:05:41;;;;;;;12.27;10.60;;;15.00;99.90;;;;;;5119661;28;20043;-79
2022/06/06 02:08:08;;;;;;;12.63;10.77;;;14.90;99.90;;;;;;5140963;27;20114;-79
2022/06/06 02:10:34;;;;;;;13.20;10.90;;;15.00;99.90;;;;;;5139807;27;20054;-79
2022/06/06 02:13:00;;;;;;;13.07;10.30;;;15.00;99.90;;;;;;5139860;27;20034;-79
2022/06/06 02:15:27;;;;;;;14.43;11.77;;;15.00;99.90;;;;;;5101060;28;20130;-78
2022/06/06 02:17:54;;;;;;;14.47;12.03;;;14.90;99.90;;;;;;5131292;27;20038;-80
2022/06/06 02:20:24;;;;;;;16.20;12.23;;;14.90;99.90;;;;;;5120065;27;20038;-78
2022/06/06 02:22:50;;;;;;;14.40;12.20;;;14.90;99.90;;;;;;5131077;27;20042;-79
2022/06/06 02:25:17;;;;;;;14.73;11.67;;;14.90;99.90;;;;;;5144032;27;20039;-78
2022/06/06 02:27:43;;;;;;;14.23;11.13;;;14.90;99.90;;;;;;5129365;27;20099;-79
2022/06/06 02:30:13;;;;;;;13.83;11.47;;;14.90;99.90;;;;;;5139392;27;20042;-79
2022/06/06 02:32:39;;;;;;;12.13;10.33;;;14.90;99.90;;;;;;5122136;27;20034;-78
2022/06/06 02:35:07;;;;;;;14.07;11.27;;;14.90;99.90;;;;;;5121550;27;20038;-79
2022/06/06 02:37:34;;;;;;;13.17;10.47;;;14.80;99.90;;;;;;5138154;27;20512;-78
2022/06/06 02:40:00;;;;;;;14.67;11.40;;;14.90;99.90;;;;;;5139015;27;20100;-79
2022/06/06 02:42:26;;;;;;;11.30;9.87;;;14.90;99.90;;;;;;5129813;27;20487;-78
2022/06/06 02:44:51;;;;;;;13.10;10.10;;;14.90;99.90;;;;;;5146487;27;20422;-79
2022/06/06 02:47:17;;;;;;;10.97;9.20;;;14.90;99.90;;;;;;5130546;27;20073;-79
2022/06/06 02:49:43;;;;;;;10.97;9.37;;;14.90;99.90;;;;;;5139569;27;20130;-77
2022/06/06 02:52:09;;;;;;;10.23;8.10;;;14.80;99.90;;;;;;5126377;27;20043;-78
2022/06/06 02:54:36;;;;;;;12.53;10.27;;;14.90;99.90;;;;;;5127020;27;20043;-79
2022/06/06 02:57:03;;;;;;;14.23;10.53;;;14.90;99.90;;;;;;5130268;27;20046;-78
2022/06/06 02:59:32;;;;;;;14.47;10.80;;;14.90;99.90;;;;;;5145385;27;20096;-79
2022/06/06 03:01:58;;;;;;;17.30;11.63;;;14.80;99.90;;;;;;5130782;27;20043;-78
2022/06/06 03:04:24;;;;;;;19.20;13.07;;;14.80;99.90;;;;;;5132437;27;20190;-79
2022/06/06 03:06:58;;;;;;;14.03;12.10;;;14.80;99.90;;;;;;5137979;27;20113;-80
2022/06/06 03:09:35;;;;;;;21.80;17.10;;;14.90;99.90;;;;;;5120176;27;20045;-79
2022/06/06 03:12:18;;;;;;;25.67;20.27;;;14.90;99.90;;;;;;5117660;27;20051;-80
2022/06/06 03:15:06;;;;;;;31.87;23.23;;;14.80;99.90;;;;;;5134472;27;20107;-79
2022/06/06 03:20:47;;;;;;;38.20;26.30;;;14.70;99.90;;;;;;5140762;27;20062;-80
2022/06/06 03:23:33;;;;;;;48.03;30.77;;;14.70;99.90;;;;;;5138062;27;20448;-79
2022/06/06 03:26:09;;;;;;;57.47;34.57;;;14.60;99.90;;;;;;5128878;27;20066;-79
2022/06/06 03:28:49;;;;;;;67.87;38.27;;;14.60;99.90;;;;;;5102945;27;20047;-79
2022/06/06 03:31:30;;;;;;;76.23;40.00;;;14.60;99.90;;;;;;5124422;27;20051;-79
2022/06/06 03:34:06;;;;;;;67.60;38.83;;;14.50;99.90;;;;;;5131899;27;20039;-78
2022/06/06 03:36:38;;;;;;;87.47;41.53;;;14.50;99.90;;;;;;5131727;27;20713;-79
2022/06/06 03:39:12;;;;;;;67.00;36.47;;;14.50;99.90;;;;;;5122561;27;20066;-80
2022/06/06 03:41:49;;;;;;;59.72;34.22;;;14.40;99.90;;;;;;5126152;27;20050;-80
2022/06/06 03:44:27;;;;;;;53.27;31.77;;;14.50;99.90;;;;;;5122364;27;20035;-80
2022/06/06 03:46:58;;;;;;;44.20;25.17;;;14.40;99.90;;;;;;5107145;27;20047;-80
2022/06/06 03:49:32;;;;;;;46.40;27.03;;;14.40;99.90;;;;;;5144474;27;20047;-80
2022/06/06 03:52:07;;;;;;;43.23;26.40;;;14.40;99.90;;;;;;5109910;27;20104;-78
2022/06/06 03:54:43;;;;;;;42.63;25.70;;;14.40;99.90;;;;;;5143582;27;20038;-79
2022/06/06 03:57:13;;;;;;;46.80;27.93;;;14.40;99.90;;;;;;5135128;27;20039;-80
2022/06/06 03:59:43;;;;;;;41.10;24.57;;;14.40;99.90;;;;;;5135849;27;20439;-80
2022/06/06 04:02:13;;;;;;;39.80;23.00;;;14.40;99.90;;;;;;5114885;27;20424;-79
2022/06/06 04:04:41;;;;;;;34.37;19.63;;;14.40;99.90;;;;;;5133214;27;20062;-79
2022/06/06 04:07:07;;;;;;;25.03;15.43;;;14.30;99.90;;;;;;5127828;27;20108;-78
2022/06/06 04:09:34;;;;;;;24.17;14.30;;;14.30;99.90;;;;;;5133406;27;20043;-78
2022/06/06 04:12:12;;;;;;;26.93;13.57;;;14.20;99.90;;;;;;5102452;27;20039;-79
2022/06/06 04:14:49;;;;;;;21.47;11.37;;;14.20;99.90;;;;;;5136767;27;20038;-79
2022/06/06 04:17:32;;;;;;;20.73;10.90;;;14.20;99.90;;;;;;5124933;27;20043;-80
2022/06/06 04:20:08;;;;;;;17.93;10.23;;;14.20;99.90;;;;;;5118727;27;20130;-80
2022/06/06 04:22:44;;;;;;;19.17;9.33;;;14.10;99.90;;;;;;5132930;27;20051;-78
2022/06/06 04:25:21;;;;;;;18.00;9.93;;;14.10;99.90;;;;;;5144309;27;20034;-79
2022/06/06 04:27:55;;;;;;;20.30;12.07;;;14.10;99.90;;;;;;5146314;27;20492;-80
2022/06/06 04:30:34;;;;;;;22.03;13.07;;;14.10;99.90;;;;;;5142934;27;20039;-79
2022/06/06 04:33:09;;;;;;;21.73;13.33;;;14.10;99.90;;;;;;5119683;27;20051;-79
2022/06/06 04:35:46;;;;;;;22.93;14.07;;;14.10;99.90;;;;;;5139138;27;20042;-79
2022/06/06 04:38:21;;;;;;;26.53;15.27;;;14.00;99.90;;;;;;5118718;27;20053;-79
2022/06/06 04:40:52;;;;;;;27.20;15.93;;;14.00;99.90;;;;;;5129551;27;20069;-77
2022/06/06 04:43:25;;;;;;;27.83;15.90;;;14.00;99.90;;;;;;5129854;27;20049;-78
2022/06/06 04:46:00;;;;;;;27.77;16.08;;;14.00;99.90;;;;;;5121694;27;20456;-79
2022/06/06 04:48:27;;;;;;;27.07;15.60;;;14.10;99.90;;;;;;5153022;27;20038;-79
2022/06/06 04:50:55;;;;;;;31.30;16.37;;;14.10;99.90;;;;;;5134006;27;20055;-78
2022/06/06 04:53:23;;;;;;;36.33;17.70;;;14.10;99.90;;;;;;5111871;27;20039;-79
2022/06/06 04:55:50;;;;;;;34.33;17.03;;;14.10;99.90;;;;;;5141750;27;20458;-79
2022/06/06 04:58:18;;;;;;;36.67;18.37;;;14.10;99.90;;;;;;5131878;27;20094;-79
2022/06/06 05:00:45;;;;;;;43.17;20.17;;;14.10;99.90;;;;;;5125524;27;20053;-77
2022/06/06 05:03:15;;;;;;;34.67;18.00;;;14.10;99.90;;;;;;5113959;27;20087;-78
2022/06/06 05:05:57;;;;;;;35.90;18.60;;;14.10;99.90;;;;;;5139657;27;20050;-79
2022/06/06 05:08:40;;;;;;;37.93;18.80;;;14.10;99.90;;;;;;5119211;27;20047;-79
2022/06/06 05:11:16;;;;;;;40.57;17.57;;;14.10;99.90;;;;;;5143050;27;20532;-77
2022/06/06 05:14:00;;;;;;;29.20;17.77;;;14.10;99.90;;;;;;5118954;27;20125;-78
2022/06/06 05:16:56;;;;;;;29.98;17.58;;;14.10;99.90;;;;;;5115588;27;20123;-79
2022/06/06 05:19:47;;;;;;;29.90;17.57;;;14.10;99.90;;;;;;5113610;27;20151;-79
2022/06/06 05:22:30;;;;;;;34.53;18.00;;;14.20;99.90;;;;;;5132024;27;20493;-79
2022/06/06 05:25:05;;;;;;;26.53;15.80;;;14.20;99.90;;;;;;5120265;27;20096;-79
2022/06/06 05:27:49;;;;;;;25.53;14.77;;;14.20;99.90;;;;;;5125012;27;20134;-79
2022/06/06 05:30:19;;;;;;;24.40;14.57;;;14.20;99.90;;;;;;5113723;27;20050;-77
2022/06/06 05:32:57;;;;;;;23.97;13.80;;;14.10;99.90;;;;;;5131230;27;20045;-78
2022/06/06 05:35:45;;;;;;;22.03;14.67;;;14.20;99.90;;;;;;5132821;27;20043;-78
2022/06/06 05:38:25;;;;;;;25.63;14.80;;;14.20;99.90;;;;;;5122802;28;20133;-77
2022/06/06 05:41:02;;;;;;;25.43;14.50;;;14.20;99.90;;;;;;5136535;27;20050;-79
2022/06/06 05:43:45;;;;;;;25.37;15.47;;;14.20;99.90;;;;;;5138157;27;20066;-77
2022/06/06 05:46:25;;;;;;;25.43;14.53;;;14.30;99.90;;;;;;5114044;28;20035;-78
2022/06/06 05:49:14;;;;;;;23.80;15.10;;;14.30;99.90;;;;;;5137071;27;20544;-77
2022/06/06 05:51:57;;;;;;;25.23;14.60;;;14.30;99.90;;;;;;5141609;27;20175;-78
2022/06/06 05:54:41;;;;;;;23.13;14.93;;;14.30;99.90;;;;;;5132190;27;20058;-78
2022/06/06 05:57:22;;;;;;;24.07;14.13;;;14.30;99.90;;;;;;5125984;27;20458;-79
2022/06/06 06:00:05;;;;;;;25.97;14.70;;;14.30;99.90;;;;;;5118191;27;20043;-78
2022/06/06 06:03:05;;;;;;;23.43;14.80;;;14.30;99.90;;;;;;5127521;27;20074;-78
2022/06/06 06:05:42;;;;;;;26.37;14.83;;;14.30;99.90;;;;;;5126179;27;20385;-78
2022/06/06 06:08:30;;;;;;;23.43;14.63;;;14.30;99.90;;;;;;5137630;27;20043;-77
2022/06/06 06:11:10;;;;;;;29.23;15.97;;;14.40;99.90;;;;;;5136783;27;20062;-79
2022/06/06 06:13:49;;;;;;;29.10;17.17;;;14.40;99.90;;;;;;5135486;27;20043;-79
2022/06/06 06:16:19;;;;;;;31.00;17.07;;;14.40;99.90;;;;;;5106058;27;20039;-78
2022/06/06 06:18:51;;;;;;;29.70;18.30;;;14.40;99.90;;;;;;5129721;27;20053;-78
2022/06/06 06:21:20;;;;;;;29.93;17.30;;;14.40;99.90;;;;;;5148965;27;20043;-78
2022/06/06 06:23:52;;;;;;;31.30;17.57;;;14.40;99.90;;;;;;5143488;27;20043;-79
2022/06/06 06:26:19;;;;;;;32.60;16.60;;;14.40;99.90;;;;;;5137340;27;20046;-78
2022/06/06 06:28:48;;;;;;;28.57;16.73;;;14.50;99.90;;;;;;5121778;27;20051;-79
2022/06/06 06:31:31;;;;;;;29.97;16.77;;;14.50;99.90;;;;;;5137902;27;20045;-78
2022/06/06 06:34:10;;;;;;;26.85;15.35;;;14.50;99.90;;;;;;5140125;27;20053;-78
2022/06/06 06:36:43;;;;;;;25.50;15.50;;;14.50;99.90;;;;;;5128513;27;20051;-78
2022/06/06 06:39:24;;;;;;;23.50;14.17;;;14.60;99.90;;;;;;5127093;27;20488;-78
2022/06/06 06:42:03;;;;;;;25.00;14.10;;;14.70;99.90;;;;;;5119984;27;20107;-78
2022/06/06 06:44:34;;;;;;;26.90;13.73;;;14.90;99.90;;;;;;5135669;27;20042;-77
2022/06/06 06:47:08;;;;;;;23.63;12.73;;;15.00;99.90;;;;;;5117667;27;20129;-77
2022/06/06 06:49:40;;;;;;;22.10;12.67;;;15.10;99.90;;;;;;5131899;27;20042;-81
2022/06/06 06:52:16;;;;;;;22.10;13.00;;;15.20;99.90;;;;;;5141884;27;20558;-78
2022/06/06 06:54:52;;;;;;;18.53;10.97;;;15.40;99.90;;;;;;5153399;27;20074;-79
2022/06/06 06:57:31;;;;;;;17.80;10.83;;;15.50;99.90;;;;;;5129607;27;20047;-76
2022/06/06 07:00:09;;;;;;;18.40;10.87;;;15.50;99.90;;;;;;5142205;27;20043;-77
2022/06/06 07:08:43;;;;;;;20.07;10.40;;;15.60;99.90;;;;;;5132097;27;20071;-78
2022/06/06 07:11:46;;;;;;;17.50;10.13;;;15.70;99.90;;;;;;5138828;27;20086;-78
2022/06/06 07:14:22;;;;;;;15.67;10.37;;;15.80;99.90;;;;;;5104048;27;20047;-78
2022/06/06 07:16:55;;;;;;;15.10;9.13;;;15.80;99.90;;;;;;5159173;27;20042;-79
2022/06/06 07:19:36;;;;;;;14.73;9.03;;;15.90;99.90;;;;;;5127636;27;20050;-79
2022/06/06 07:22:04;;;;;;;16.33;10.20;;;16.00;99.90;;;;;;5118622;27;20364;-78
2022/06/06 07:24:30;;;;;;;16.37;10.23;;;16.00;99.90;;;;;;5116600;27;20040;-77
2022/06/06 07:26:59;;;;;;;17.30;10.53;;;16.00;99.90;;;;;;5131528;27;20070;-79
2022/06/06 07:29:25;;;;;;;17.83;10.47;;;16.00;99.90;;;;;;5126077;27;20047;-78
2022/06/06 07:32:14;;;;;;;17.87;10.53;;;16.00;99.90;;;;;;5130198;27;20068;-78
2022/06/06 07:34:57;;;;;;;20.43;10.90;;;15.90;99.90;;;;;;5140608;27;20757;-78
2022/06/06 07:37:36;;;;;;;16.27;10.80;;;16.00;99.90;;;;;;5131830;27;20054;-80
2022/06/06 07:40:10;;;;;;;20.33;10.93;;;16.00;99.90;;;;;;5126178;27;20045;-78
2022/06/06 07:42:51;;;;;;;;;;;16.00;99.90;;;;;;5130184;27;20385;-79
2022/06/06 07:45:26;;;;;;;14.33;8.87;;;15.90;99.90;;;;;;5135420;27;20376;-78
2022/06/06 07:48:09;;;;;;;14.43;8.53;;;15.90;99.90;;;;;;5140570;27;20043;-80
2022/06/06 07:50:41;;;;;;;14.17;8.63;;;15.80;99.90;;;;;;5137203;27;20466;-78
2022/06/06 07:53:17;;;;;;;15.47;9.73;;;15.80;99.90;;;;;;5127616;27;20178;-77
2022/06/06 07:55:48;;;;;;;17.60;10.67;;;15.90;99.90;;;;;;5129642;27;20109;-78
2022/06/06 07:58:20;;;;;;;19.77;12.83;;;16.10;99.90;;;;;;5136854;27;20191;-79
2022/06/06 08:00:57;;;;;;;19.53;12.40;;;16.20;99.90;;;;;;5136485;27;20047;-78
2022/06/06 08:03:33;;;;;;;23.70;14.93;;;16.40;99.90;;;;;;5151043;27;20511;-76
2022/06/06 08:06:23;;;;;;;23.63;14.07;;;16.60;99.90;;;;;;5135536;27;20039;-78
2022/06/06 08:09:09;;;;;;;21.47;14.00;;;16.60;99.90;;;;;;5126616;27;20046;-78
2022/06/06 08:11:44;;;;;;;20.83;13.07;;;16.80;99.90;;;;;;5121118;27;20512;-78
2022/06/06 08:14:20;;;;;;;13.87;9.70;;;17.00;99.90;;;;;;5144775;27;20499;-79
2022/06/06 08:16:54;;;;;;;12.47;8.47;;;17.00;99.90;;;;;;5146097;27;20137;-78
2022/06/06 08:19:34;;;;;;;12.63;8.30;;;17.10;99.90;;;;;;5140259;27;20091;-79
2022/06/06 08:22:00;;;;;;;13.03;8.57;;;17.00;99.90;;;;;;5103371;27;20039;-79
2022/06/06 08:24:29;;;;;;;14.37;8.70;;;16.80;99.90;;;;;;5115999;27;20045;-77
2022/06/06 08:26:57;;;;;;;13.23;7.93;;;16.60;99.90;;;;;;5123778;27;20073;-79
2022/06/06 08:29:26;;;;;;;12.63;8.17;;;16.40;99.90;;;;;;5145939;27;20141;-77
2022/06/06 08:31:51;;;;;;;15.07;7.73;;;16.30;99.90;;;;;;5139285;27;20050;-78
2022/06/06 08:34:17;;;;;;;13.53;7.57;;;16.30;99.90;;;;;;5130789;27;20138;-77
2022/06/06 08:37:15;;;;;;;15.13;7.93;;;16.20;99.90;;;;;;5133331;27;20457;-78
2022/06/06 08:39:50;;;;;;;14.67;6.53;;;16.20;99.90;;;;;;5098576;27;20055;-78
2022/06/06 08:42:29;;;;;;;10.40;5.67;;;16.20;99.90;;;;;;5121819;27;20039;-77
2022/06/06 08:45:20;;;;;;;12.77;5.13;;;16.40;99.90;;;;;;5124340;27;20053;-77
2022/06/06 08:47:56;;;;;;;11.10;5.23;;;16.50;99.90;;;;;;5132467;27;20124;-78
2022/06/06 08:50:44;;;;;;;10.27;5.40;;;16.60;99.90;;;;;;5132125;27;20062;-77
2022/06/06 08:53:58;;;;;;;9.60;5.30;;;16.50;99.90;;;;;;5132341;27;20043;-77
2022/06/06 08:56:57;;;;;;;8.97;5.17;;;16.40;99.90;;;;;;5137153;27;20039;-78
2022/06/06 08:59:57;;;;;;;8.50;5.10;;;16.50;99.90;;;;;;5124745;27;20145;-79
2022/06/06 09:03:08;;;;;;;7.50;4.07;;;16.70;99.90;;;;;;5132103;27;20114;-77
2022/06/06 09:06:13;;;;;;;8.10;3.30;;;17.00;99.90;;;;;;5080269;28;20425;-78
2022/06/06 09:09:29;;;;;;;3.83;2.00;;;17.40;99.90;;;;;;5145341;27;20047;-76
2022/06/06 09:12:26;;;;;;;5.97;1.93;;;17.60;99.90;;;;;;5133890;27;20059;-77
2022/06/06 09:15:08;;;;;;;6.00;1.97;;;18.00;99.90;;;;;;5131565;27;20046;-79
2022/06/06 09:18:30;;;;;;;4.97;2.10;;;18.00;99.90;;;;;;5128772;27;20070;-78
2022/06/06 09:21:33;;;;;;;6.43;2.03;;;17.90;99.90;;;;;;5133243;27;20454;-79
2022/06/06 09:24:34;;;;;;;4.30;1.77;;;18.00;99.90;;;;;;5097076;27;20428;-78
2022/06/06 09:27:20;;;;;;;6.83;2.13;;;18.10;99.90;;;;;;5116566;27;20110;-79
2022/06/06 09:30:06;;;;;;;5.80;2.10;;;18.30;99.90;;;;;;5131229;27;20047;-77
2022/06/06 09:33:11;;;;;;;4.37;1.77;;;18.30;99.90;;;;;;5131620;27;20556;-77
2022/06/06 09:35:45;;;;;;;6.10;2.27;;;18.40;99.90;;;;;;5123325;28;20047;-78
2022/06/06 09:38:27;;;;;;;4.25;2.20;;;18.30;99.90;;;;;;5114275;28;20043;-78
2022/06/06 09:41:05;;;;;;;5.83;2.00;;;18.20;99.90;;;;;;5132679;27;20439;-77
2022/06/06 09:43:55;;;;;;;6.27;1.70;;;18.10;99.90;;;;;;5132762;27;20047;-81
2022/06/06 09:46:48;;;;;;;8.83;2.10;;;18.00;99.90;;;;;;5139341;27;20035;-79
2022/06/06 09:49:58;;;;;;;5.40;1.90;;;18.00;99.90;;;;;;5126601;28;20053;-78
2022/06/06 09:53:06;;;;;;;6.40;2.20;;;18.30;99.90;;;;;;5135496;27;20107;-77
2022/06/06 09:59:32;;;;;;;6.60;2.10;;;19.00;99.90;;;;;;5114437;27;20048;-79
2022/06/06 10:02:29;;;;;;;8.97;2.30;;;18.50;99.90;;;;;;5118286;27;20034;-78
2022/06/06 10:05:30;;;;;;;5.67;2.53;;;18.10;99.90;;;;;;5140309;27;20138;-77
2022/06/06 10:08:25;;;;;;;8.03;2.83;;;17.60;99.90;;;;;;5139522;27;20510;-76
2022/06/06 10:11:38;;;;;;;6.93;2.77;;;17.50;99.90;;;;;;5127194;27;20499;-77
2022/06/06 10:14:21;;;;;;;5.63;2.60;;;17.60;99.90;;;;;;5095334;27;20047;-78
2022/06/06 10:17:11;;;;;;;5.97;1.90;;;17.40;99.90;;;;;;5126637;27;20039;-79
2022/06/06 10:20:01;;;;;;;6.00;2.20;;;17.20;99.90;;;;;;5125648;27;20039;-77
2022/06/06 10:23:09;;;;;;;4.00;1.47;;;16.90;99.90;;;;;;5133633;27;20039;-79
2022/06/06 10:25:55;;;;;;;4.43;1.70;;;16.80;99.90;;;;;;5139714;27;20376;-78
2022/06/06 10:28:53;;;;;;;5.53;1.67;;;16.90;99.90;;;;;;5143393;27;20031;-79
2022/06/06 10:31:36;;;;;;;4.93;1.77;;;17.10;99.90;;;;;;5120313;27;20130;-77
2022/06/06 10:34:24;;;;;;;5.73;1.90;;;17.50;99.90;;;;;;5140955;27;20046;-78
2022/06/06 10:37:07;;;;;;;5.03;2.10;;;17.90;99.90;;;;;;5113333;28;20512;-77
2022/06/06 10:40:01;;;;;;;4.50;1.67;;;18.40;99.90;;;;;;5125804;28;20047;-78
2022/06/06 10:42:51;;;;;;;6.50;1.60;;;18.50;99.90;;;;;;5147930;27;20488;-78
2022/06/06 10:45:29;;;;;;;4.03;2.03;;;18.10;99.90;;;;;;5133778;27;20038;-79
2022/06/06 10:48:29;;;;;;;8.93;2.43;;;17.90;99.90;;;;;;5139061;27;20047;-78
2022/06/06 10:51:37;;;;;;;4.23;1.80;;;17.70;99.90;;;;;;5118669;27;20518;-78
2022/06/06 10:54:30;;;;;;;5.70;2.03;;;17.50;99.90;;;;;;5140563;27;20046;-78
2022/06/06 10:57:40;;;;;;;5.70;1.77;;;17.30;99.90;;;;;;5117089;27;20047;-78
2022/06/06 11:00:18;;;;;;;4.60;1.50;;;17.10;99.90;;;;;;5144467;27;20099;-77
2022/06/06 11:03:34;;;;;;;4.00;1.30;;;17.00;99.90;;;;;;5140338;27;20042;-78
2022/06/06 11:06:41;;;;;;;2.77;1.40;;;16.80;99.90;;;;;;5140693;27;20080;-78
2022/06/06 11:09:27;;;;;;;5.20;2.00;;;16.60;99.90;;;;;;5063908;27;20047;-76
2022/06/06 11:12:26;;;;;;;5.40;2.10;;;16.40;99.90;;;;;;5130828;27;20044;-77
2022/06/06 11:14:53;;;;;;;5.73;1.80;;;16.30;99.90;;;;;;5113755;27;20126;-77
2022/06/06 11:17:57;;;;;;;4.47;1.70;;;16.10;99.90;;;;;;5135274;27;21621;-79
2022/06/06 11:21:02;;;;;;;3.72;1.45;;;16.00;99.90;;;;;;5118544;27;20093;-79
2022/06/06 11:23:36;;;;;;;3.43;1.20;;;15.90;99.90;;;;;;5113613;27;20035;-78
2022/06/06 11:26:41;;;;;;;2.63;1.20;;;15.80;99.90;;;;;;5129518;27;20046;-78
2022/06/06 11:29:29;;;;;;;2.35;1.27;;;15.80;99.90;;;;;;5139529;27;20167;-77
2022/06/06 11:32:14;;;;;;;3.03;1.30;;;15.90;99.90;;;;;;5138944;27;20504;-77
2022/06/06 11:35:16;;;;;;;3.03;1.30;;;16.00;99.90;;;;;;5138618;27;20087;-79
2022/06/06 11:38:14;;;;;;;2.60;1.40;;;15.90;99.90;;;;;;5140237;27;20035;-78
2022/06/06 11:41:19;;;;;;;4.60;1.57;;;15.90;99.90;;;;;;5140673;27;20043;-79
2022/06/06 11:44:15;;;;;;;3.43;2.30;;;16.40;99.90;;;;;;5116892;27;20043;-78
2022/06/06 11:47:21;;;;;;;3.37;1.10;;;17.10;99.90;;;;;;5141894;27;20046;-79
2022/06/06 11:50:24;;;;;;;4.40;1.50;;;17.90;99.90;;;;;;5127714;27;20065;-78
2022/06/06 11:53:43;;;;;;;3.53;1.35;;;18.40;99.90;;;;;;5152376;27;20496;-78
2022/06/06 11:56:23;;;;;;;3.83;1.40;;;18.70;99.90;;;;;;5125176;27;20055;-78
2022/06/06 11:59:29;;;;;;;3.47;1.33;;;19.10;99.90;;;;;;5122424;27;20057;-81
2022/06/06 12:02:24;;;;;;;6.93;1.40;;;19.60;99.90;;;;;;5132673;27;20042;-77
2022/06/06 12:05:20;;;;;;;2.53;1.13;;;20.00;99.90;;;;;;5136509;27;20536;-76
2022/06/06 12:08:24;;;;;;;4.40;1.20;;;20.30;99.90;;;;;;5124772;27;20034;-79
2022/06/06 12:11:04;;;;;;;4.70;1.20;;;20.30;99.90;;;;;;5118685;27;20043;-78
2022/06/06 12:14:14;;;;;;;3.40;1.00;;;20.20;99.90;;;;;;5142794;27;20449;-78
2022/06/06 12:16:50;;;;;;;4.63;1.00;;;19.80;99.90;;;;;;5121052;27;20047;-80
2022/06/06 12:19:33;;;;;;;3.07;0.90;;;19.50;99.90;;;;;;5114964;27;20133;-78
2022/06/06 12:22:39;;;;;;;3.80;0.90;;;19.40;99.90;;;;;;5125915;27;20395;-78
2022/06/06 12:25:49;;;;;;;1.67;0.73;;;19.50;99.90;;;;;;5126326;27;20126;-77
2022/06/06 12:28:53;;;;;;;1.43;0.73;;;19.40;99.90;;;;;;5121542;27;20119;-82
2022/06/06 12:31:35;;;;;;;1.90;0.83;;;19.30;99.90;;;;;;5134935;27;20043;-78
2022/06/06 12:34:10;;;;;;;3.30;0.50;;;19.40;99.90;;;;;;5130245;27;20039;-76
2022/06/06 12:36:46;;;;;;;1.07;0.57;;;19.40;99.90;;;;;;5125144;27;20133;-79
2022/06/06 12:39:23;;;;;;;2.23;0.60;;;19.50;99.90;;;;;;5140545;27;20042;-80
2022/06/06 12:42:01;;;;;;;3.03;0.97;;;19.60;99.90;;;;;;5136695;27;20095;-79
2022/06/06 12:44:45;;;;;;;1.70;0.60;;;19.60;99.90;;;;;;5110491;27;20553;-78
2022/06/06 12:47:48;;;;;;;7.80;1.23;;;19.40;99.90;;;;;;5136941;27;20460;-78
2022/06/06 12:50:29;;;;;;;3.70;0.80;;;19.00;99.90;;;;;;5160333;27;20038;-78
2022/06/06 12:53:24;;;;;;;1.73;0.90;;;18.90;99.90;;;;;;5132223;27;20115;-77
2022/06/06 12:58:37;;;;;;;3.30;1.13;;;18.60;99.90;;;;;;5138192;27;20060;-79
2022/06/06 13:04:23;;;;;;;6.93;1.00;;;18.50;99.90;;;;;;5145727;27;20049;-79
2022/06/06 13:06:56;;;;;;;3.43;0.90;;;18.60;99.90;;;;;;5125000;27;20058;-81
2022/06/06 13:09:41;;;;;;;2.13;0.80;;;18.60;99.90;;;;;;5123711;27;20042;-77
2022/06/06 13:12:21;;;;;;;1.97;0.90;;;18.60;99.90;;;;;;5137451;27;20148;-77
2022/06/06 13:15:00;;;;;;;2.23;1.17;;;18.50;99.90;;;;;;5131338;27;20039;-78
2022/06/06 13:17:35;;;;;;;2.60;0.90;;;18.40;99.90;;;;;;5125644;27;20043;-77
2022/06/06 13:20:16;;;;;;;3.93;1.00;;;18.30;99.90;;;;;;5124708;27;20050;-79
2022/06/06 13:23:17;;;;;;;2.90;1.07;;;18.20;99.90;;;;;;5116841;27;20047;-79
2022/06/06 13:25:56;;;;;;;3.33;0.90;;;18.20;99.90;;;;;;5138355;27;20042;-78
2022/06/06 13:28:27;;;;;;;2.03;0.80;;;18.20;99.90;;;;;;5142832;27;20173;-77
2022/06/06 13:31:27;;;;;;;2.00;0.60;;;18.10;99.90;;;;;;5127529;27;20490;-78
2022/06/06 13:34:12;;;;;;;3.00;0.90;;;17.90;99.90;;;;;;5127985;27;20065;-83
2022/06/06 13:37:03;;;;;;;1.80;0.87;;;17.70;99.90;;;;;;5137284;27;20042;-79
2022/06/06 13:39:49;;;;;;;4.53;1.07;;;17.60;99.90;;;;;;5119790;27;20043;-76
2022/06/06 13:42:28;;;;;;;3.87;1.27;;;17.50;99.90;;;;;;5114682;27;20412;-78
2022/06/06 13:45:15;;;;;;;3.27;1.20;;;17.40;99.90;;;;;;5149102;27;20393;-79
2022/06/06 13:48:07;;;;;;;3.93;1.13;;;17.40;99.90;;;;;;5118601;27;20043;-80
2022/06/06 13:50:38;;;;;;;4.47;1.47;;;17.20;99.90;;;;;;5133497;27;20043;-77
2022/06/06 13:53:48;;;;;;;3.40;1.30;;;17.00;99.90;;;;;;5115237;27;20512;-79
2022/06/06 13:56:29;;;;;;;4.37;1.70;;;16.80;99.90;;;;;;5134212;27;20126;-77
2022/06/06 13:59:07;;;;;;;5.43;1.60;;;16.50;99.90;;;;;;5132681;27;20034;-80
2022/06/06 14:01:45;;;;;;;2.57;1.90;;;16.30;99.90;;;;;;5126368;27;20057;-80